createdAt,value
2022-12-08T00:00:34.053Z,1006.11
2022-12-08T00:01:34.046Z,1006.17
2022-12-08T00:02:34.237Z,1006.13
2022-12-08T00:03:34.259Z,1006.10
2022-12-08T00:04:34.029Z,1006.11
2022-12-08T00:05:34.020Z,1006.07
2022-12-08T00:06:34.017Z,1006.07
2022-12-08T00:07:34.024Z,1006.08
2022-12-08T00:08:34.005Z,1006.03
2022-12-08T00:09:38.681Z,1006.02
2022-12-08T00:10:49.093Z,1005.97
2022-12-08T00:11:33.984Z,1006.00
2022-12-08T00:12:33.982Z,1005.99
2022-12-08T00:13:33.972Z,1005.96
2022-12-08T00:14:33.972Z,1005.93
2022-12-08T00:15:33.960Z,1005.93
2022-12-08T00:16:33.990Z,1005.87
2022-12-08T00:17:33.948Z,1005.88
2022-12-08T00:18:33.946Z,1005.85
2022-12-08T00:19:33.937Z,1005.87
2022-12-08T00:20:33.927Z,1005.81
2022-12-08T00:21:33.924Z,1005.83
2022-12-08T00:22:33.915Z,1005.82
2022-12-08T00:23:33.931Z,1005.81
2022-12-08T00:24:33.903Z,1005.83
2022-12-08T00:25:33.898Z,1005.81
2022-12-08T00:26:33.890Z,1005.78
2022-12-08T00:27:33.888Z,1005.75
2022-12-08T00:28:33.883Z,1005.76
2022-12-08T00:29:33.885Z,1005.78
2022-12-08T00:30:33.867Z,1005.76
2022-12-08T00:31:33.932Z,1005.74
2022-12-08T00:32:33.858Z,1005.74
2022-12-08T00:33:33.849Z,1005.74
2022-12-08T00:34:33.847Z,1005.71
2022-12-08T00:35:36.552Z,1005.71
2022-12-08T00:36:33.835Z,1005.73
2022-12-08T00:37:33.830Z,1005.73
2022-12-08T00:38:33.823Z,1005.73
2022-12-08T00:39:33.835Z,1005.72
2022-12-08T00:40:33.809Z,1005.76
2022-12-08T00:41:33.801Z,1005.70
2022-12-08T00:42:33.804Z,1005.72
2022-12-08T00:43:33.792Z,1005.71
2022-12-08T00:44:33.787Z,1005.68
2022-12-08T00:45:33.853Z,1005.67
2022-12-08T00:46:33.771Z,1005.64
2022-12-08T00:47:33.763Z,1005.64
2022-12-08T00:48:33.763Z,1005.59
2022-12-08T00:49:33.750Z,1005.57
2022-12-08T00:50:33.756Z,1005.58
2022-12-08T00:51:33.743Z,1005.54
2022-12-08T00:52:33.737Z,1005.52
2022-12-08T00:53:33.736Z,1005.55
2022-12-08T00:54:33.729Z,1005.51
2022-12-08T00:55:33.731Z,1005.54
2022-12-08T00:56:33.709Z,1005.59
2022-12-08T00:57:33.700Z,1005.54
2022-12-08T00:58:33.704Z,1005.50
2022-12-08T00:59:33.688Z,1005.46
2022-12-08T01:00:33.687Z,1005.49
2022-12-08T01:01:33.782Z,1005.47
2022-12-08T01:02:33.671Z,1005.45
2022-12-08T01:03:33.754Z,1005.44
2022-12-08T01:04:33.662Z,1005.45
2022-12-08T01:05:33.653Z,1005.46
2022-12-08T01:06:33.648Z,1005.46
2022-12-08T01:07:33.643Z,1005.47
2022-12-08T01:08:33.638Z,1005.48
2022-12-08T01:09:33.633Z,1005.41
2022-12-08T01:10:33.625Z,1005.47
2022-12-08T01:11:33.647Z,1005.45
2022-12-08T01:12:33.612Z,1005.45
2022-12-08T01:13:33.606Z,1005.40
2022-12-08T01:14:33.600Z,1005.44
2022-12-08T01:15:33.594Z,1005.43
2022-12-08T01:16:33.689Z,1005.40
2022-12-08T01:17:33.581Z,1005.43
2022-12-08T01:18:33.581Z,1005.45
2022-12-08T01:19:33.575Z,1005.46
2022-12-08T01:20:33.566Z,1005.47
2022-12-08T01:21:33.558Z,1005.48
2022-12-08T01:22:33.552Z,1005.47
2022-12-08T01:23:33.544Z,1005.47
2022-12-08T01:24:33.541Z,1005.50
2022-12-08T01:25:33.534Z,1005.47
2022-12-08T01:26:33.526Z,1005.50
2022-12-08T01:27:33.541Z,1005.46
2022-12-08T01:28:33.519Z,1005.47
2022-12-08T01:29:33.507Z,1005.46
2022-12-08T01:30:33.552Z,1005.46
2022-12-08T01:31:33.494Z,1005.50
2022-12-08T01:32:33.490Z,1005.45
2022-12-08T01:33:33.481Z,1005.46
2022-12-08T01:34:33.478Z,1005.44
2022-12-08T01:35:33.470Z,1005.45
2022-12-08T01:36:33.469Z,1005.48
2022-12-08T01:37:33.455Z,1005.48
2022-12-08T01:38:33.453Z,1005.47
2022-12-08T01:39:33.446Z,1005.46
2022-12-08T01:40:33.448Z,1005.45
2022-12-08T01:41:33.444Z,1005.49
2022-12-08T01:42:33.429Z,1005.43
2022-12-08T01:43:33.445Z,1005.43
2022-12-08T01:44:33.418Z,1005.44
2022-12-08T01:45:33.410Z,1005.38
2022-12-08T01:46:33.558Z,1005.44
2022-12-08T01:47:33.420Z,1005.41
2022-12-08T01:48:33.392Z,1005.42
2022-12-08T01:49:33.383Z,1005.39
2022-12-08T01:50:33.384Z,1005.37
2022-12-08T01:51:33.371Z,1005.38
2022-12-08T01:52:33.367Z,1005.38
2022-12-08T01:53:33.358Z,1005.35
2022-12-08T01:54:33.353Z,1005.38
2022-12-08T01:55:33.349Z,1005.36
2022-12-08T01:56:33.341Z,1005.34
2022-12-08T01:57:33.344Z,1005.34
2022-12-08T01:58:33.331Z,1005.35
2022-12-08T01:59:33.349Z,1005.32
2022-12-08T02:00:33.318Z,1005.30
2022-12-08T02:01:33.365Z,1005.32
2022-12-08T02:02:33.465Z,1005.30
2022-12-08T02:03:33.299Z,1005.30
2022-12-08T02:04:33.301Z,1005.31
2022-12-08T02:05:33.283Z,1005.31
2022-12-08T02:06:33.281Z,1005.27
2022-12-08T02:07:33.274Z,1005.27
2022-12-08T02:08:33.270Z,1005.25
2022-12-08T02:09:33.263Z,1005.25
2022-12-08T02:10:33.255Z,1005.25
2022-12-08T02:11:33.248Z,1005.23
2022-12-08T02:12:33.254Z,1005.21
2022-12-08T02:13:33.239Z,1005.20
2022-12-08T02:14:33.228Z,1005.18
2022-12-08T02:15:33.296Z,1005.15
2022-12-08T02:16:33.311Z,1005.18
2022-12-08T02:17:33.210Z,1005.16
2022-12-08T02:18:33.205Z,1005.16
2022-12-08T02:19:33.201Z,1005.11
2022-12-08T02:20:33.194Z,1005.14
2022-12-08T02:21:33.184Z,1005.15
2022-12-08T02:22:33.184Z,1005.11
2022-12-08T02:23:33.173Z,1005.15
2022-12-08T02:24:33.169Z,1005.13
2022-12-08T02:25:33.167Z,1005.14
2022-12-08T02:26:33.154Z,1005.10
2022-12-08T02:27:33.149Z,1005.04
2022-12-08T02:28:33.144Z,1005.04
2022-12-08T02:29:33.136Z,1004.97
2022-12-08T02:30:33.205Z,1004.99
2022-12-08T02:31:33.164Z,1004.96
2022-12-08T02:32:33.118Z,1004.92
2022-12-08T02:33:33.109Z,1004.92
2022-12-08T02:34:33.106Z,1004.91
2022-12-08T02:35:33.098Z,1004.94
2022-12-08T02:36:33.098Z,1004.93
2022-12-08T02:37:33.084Z,1004.93
2022-12-08T02:38:33.081Z,1004.88
2022-12-08T02:39:33.073Z,1004.84
2022-12-08T02:40:33.078Z,1004.88
2022-12-08T02:41:33.064Z,1004.81
2022-12-08T02:42:33.058Z,1004.79
2022-12-08T02:43:33.049Z,1004.82
2022-12-08T02:44:33.043Z,1004.81
2022-12-08T02:45:33.035Z,1004.77
2022-12-08T02:46:33.141Z,1004.75
2022-12-08T02:47:33.048Z,1004.78
2022-12-08T02:48:33.021Z,1004.70
2022-12-08T02:49:33.016Z,1004.72
2022-12-08T02:50:33.008Z,1004.73
2022-12-08T02:51:33.003Z,1004.68
2022-12-08T02:52:32.993Z,1004.68
2022-12-08T02:53:32.987Z,1004.67
2022-12-08T02:54:32.981Z,1004.66
2022-12-08T02:55:32.978Z,1004.68
2022-12-08T02:56:32.970Z,1004.64
2022-12-08T02:57:32.966Z,1004.68
2022-12-08T02:58:32.959Z,1004.65
2022-12-08T02:59:32.952Z,1004.60
2022-12-08T03:00:32.945Z,1004.60
2022-12-08T03:01:33.054Z,1004.56
2022-12-08T03:02:33.078Z,1004.58
2022-12-08T03:03:32.970Z,1004.60
2022-12-08T03:04:32.924Z,1004.57
2022-12-08T03:05:32.912Z,1004.58
2022-12-08T03:06:32.907Z,1004.52
2022-12-08T03:07:32.901Z,1004.55
2022-12-08T03:08:32.898Z,1004.49
2022-12-08T03:09:32.886Z,1004.46
2022-12-08T03:10:32.881Z,1004.43
2022-12-08T03:11:32.882Z,1004.44
2022-12-08T03:12:32.879Z,1004.48
2022-12-08T03:13:32.863Z,1004.47
2022-12-08T03:14:32.857Z,1004.44
2022-12-08T03:15:32.903Z,1004.47
2022-12-08T03:16:32.851Z,1004.46
2022-12-08T03:17:32.840Z,1004.46
2022-12-08T03:18:32.832Z,1004.48
2022-12-08T03:19:32.843Z,1004.42
2022-12-08T03:20:32.821Z,1004.45
2022-12-08T03:21:32.811Z,1004.40
2022-12-08T03:22:32.809Z,1004.40
2022-12-08T03:23:32.802Z,1004.38
2022-12-08T03:24:32.795Z,1004.36
2022-12-08T03:25:32.793Z,1004.32
2022-12-08T03:26:32.782Z,1004.33
2022-12-08T03:27:32.775Z,1004.33
2022-12-08T03:28:32.771Z,1004.35
2022-12-08T03:29:32.761Z,1004.33
2022-12-08T03:30:32.756Z,1004.32
2022-12-08T03:31:32.829Z,1004.26
2022-12-08T03:32:32.748Z,1004.29
2022-12-08T03:33:32.738Z,1004.30
2022-12-08T03:34:32.734Z,1004.28
2022-12-08T03:35:32.750Z,1004.25
2022-12-08T03:36:32.719Z,1004.27
2022-12-08T03:37:32.719Z,1004.24
2022-12-08T03:38:32.707Z,1004.19
2022-12-08T03:39:32.710Z,1004.20
2022-12-08T03:40:32.698Z,1004.18
2022-12-08T03:41:32.685Z,1004.17
2022-12-08T03:42:32.679Z,1004.17
2022-12-08T03:43:32.676Z,1004.20
2022-12-08T03:44:32.670Z,1004.17
2022-12-08T03:45:32.665Z,1004.16
2022-12-08T03:46:32.656Z,1004.15
2022-12-08T03:47:32.649Z,1004.13
2022-12-08T03:48:32.644Z,1004.11
2022-12-08T03:49:32.641Z,1004.10
2022-12-08T03:50:32.632Z,1004.07
2022-12-08T03:51:32.645Z,1004.04
2022-12-08T03:52:32.617Z,1004.04
2022-12-08T03:53:32.608Z,1004.03
2022-12-08T03:54:32.607Z,1004.06
2022-12-08T03:55:32.600Z,1004.06
2022-12-08T03:56:32.592Z,1004.01
2022-12-08T03:57:32.586Z,1004.01
2022-12-08T03:58:37.185Z,1004.00
2022-12-08T03:59:32.577Z,1003.99
2022-12-08T04:00:32.571Z,1003.97
2022-12-08T04:01:32.648Z,1003.95
2022-12-08T04:02:32.581Z,1003.96
2022-12-08T04:03:32.551Z,1003.94
2022-12-08T04:04:32.543Z,1003.94
2022-12-08T04:05:32.540Z,1003.95
2022-12-08T04:06:32.531Z,1003.90
2022-12-08T04:07:32.554Z,1003.88
2022-12-08T04:08:32.519Z,1003.86
2022-12-08T04:09:32.514Z,1003.91
2022-12-08T04:10:32.504Z,1003.87
2022-12-08T04:11:32.500Z,1003.83
2022-12-08T04:12:32.491Z,1003.84
2022-12-08T04:13:32.486Z,1003.82
2022-12-08T04:14:32.478Z,1003.82
2022-12-08T04:15:32.473Z,1003.82
2022-12-08T04:16:32.556Z,1003.79
2022-12-08T04:17:32.461Z,1003.74
2022-12-08T04:18:32.456Z,1003.76
2022-12-08T04:19:32.448Z,1003.77
2022-12-08T04:20:32.444Z,1003.77
2022-12-08T04:21:32.435Z,1003.75
2022-12-08T04:22:32.428Z,1003.75
2022-12-08T04:23:32.444Z,1003.74
2022-12-08T04:24:32.416Z,1003.73
2022-12-08T04:25:32.408Z,1003.75
2022-12-08T04:26:32.405Z,1003.66
2022-12-08T04:27:32.398Z,1003.67
2022-12-08T04:28:32.392Z,1003.65
2022-12-08T04:29:32.382Z,1003.58
2022-12-08T04:30:32.377Z,1003.58
2022-12-08T04:31:32.502Z,1003.56
2022-12-08T04:32:32.363Z,1003.55
2022-12-08T04:33:32.359Z,1003.60
2022-12-08T04:34:32.352Z,1003.56
2022-12-08T04:35:32.349Z,1003.55
2022-12-08T04:36:32.339Z,1003.54
2022-12-08T04:37:32.336Z,1003.56
2022-12-08T04:38:32.327Z,1003.56
2022-12-08T04:39:32.338Z,1003.53
2022-12-08T04:40:32.314Z,1003.56
2022-12-08T04:41:32.309Z,1003.54
2022-12-08T04:42:32.302Z,1003.55
2022-12-08T04:43:32.297Z,1003.61
2022-12-08T04:44:32.293Z,1003.58
2022-12-08T04:45:32.283Z,1003.56
2022-12-08T04:46:32.456Z,1003.53
2022-12-08T04:47:32.277Z,1003.56
2022-12-08T04:48:32.269Z,1003.55
2022-12-08T04:49:32.262Z,1003.53
2022-12-08T04:50:32.259Z,1003.53
2022-12-08T04:51:32.250Z,1003.50
2022-12-08T04:52:32.249Z,1003.53
2022-12-08T04:53:32.260Z,1003.51
2022-12-08T04:54:32.251Z,1003.52
2022-12-08T04:55:32.246Z,1003.50
2022-12-08T04:56:32.213Z,1003.53
2022-12-08T04:57:32.221Z,1003.51
2022-12-08T04:58:32.201Z,1003.49
2022-12-08T04:59:32.223Z,1003.50
2022-12-08T05:00:32.230Z,1003.50
2022-12-08T05:01:32.509Z,1003.46
2022-12-08T05:02:32.349Z,1003.51
2022-12-08T05:03:32.172Z,1003.46
2022-12-08T05:04:32.172Z,1003.51
2022-12-08T05:05:32.159Z,1003.48
2022-12-08T05:06:32.155Z,1003.50
2022-12-08T05:07:32.155Z,1003.45
2022-12-08T05:08:32.249Z,1003.44
2022-12-08T05:09:32.136Z,1003.46
2022-12-08T05:10:32.127Z,1003.44
2022-12-08T05:11:32.163Z,1003.42
2022-12-08T05:12:32.117Z,1003.47
2022-12-08T05:13:32.110Z,1003.48
2022-12-08T05:14:32.100Z,1003.46
2022-12-08T05:15:32.101Z,1003.42
2022-12-08T05:16:32.193Z,1003.47
2022-12-08T05:17:32.082Z,1003.47
2022-12-08T05:18:32.073Z,1003.41
2022-12-08T05:19:32.073Z,1003.43
2022-12-08T05:20:32.069Z,1003.43
2022-12-08T05:21:32.061Z,1003.43
2022-12-08T05:22:32.051Z,1003.39
2022-12-08T05:23:32.049Z,1003.37
2022-12-08T05:24:32.041Z,1003.39
2022-12-08T05:25:32.035Z,1003.38
2022-12-08T05:26:32.028Z,1003.36
2022-12-08T05:27:32.037Z,1003.37
2022-12-08T05:28:41.367Z,1003.37
2022-12-08T05:29:32.010Z,1003.39
2022-12-08T05:30:32.008Z,1003.36
2022-12-08T05:31:32.075Z,1003.36
2022-12-08T05:32:31.987Z,1003.39
2022-12-08T05:33:31.981Z,1003.37
2022-12-08T05:34:31.976Z,1003.37
2022-12-08T05:35:31.969Z,1003.37
2022-12-08T05:36:31.961Z,1003.35
2022-12-08T05:37:31.957Z,1003.37
2022-12-08T05:38:31.950Z,1003.39
2022-12-08T05:39:31.944Z,1003.41
2022-12-08T05:40:31.939Z,1003.36
2022-12-08T05:41:32.135Z,1003.36
2022-12-08T05:42:31.927Z,1003.34
2022-12-08T05:43:31.941Z,1003.32
2022-12-08T05:44:31.911Z,1003.29
2022-12-08T05:45:31.980Z,1003.30
2022-12-08T05:46:31.899Z,1003.26
2022-12-08T05:47:35.979Z,1003.24
2022-12-08T05:48:31.889Z,1003.24
2022-12-08T05:49:31.885Z,1003.27
2022-12-08T05:50:31.875Z,1003.26
2022-12-08T05:51:31.873Z,1003.24
2022-12-08T05:52:31.869Z,1003.25
2022-12-08T05:53:31.856Z,1003.25
2022-12-08T05:54:31.848Z,1003.26
2022-12-08T05:55:31.855Z,1003.16
2022-12-08T05:56:31.839Z,1003.21
2022-12-08T05:57:31.832Z,1003.17
2022-12-08T05:58:31.824Z,1003.13
2022-12-08T05:59:31.841Z,1003.16
2022-12-08T06:00:31.818Z,1003.15
2022-12-08T06:01:31.988Z,1003.15
2022-12-08T06:02:32.009Z,1003.20
2022-12-08T06:03:31.870Z,1003.21
2022-12-08T06:04:31.793Z,1003.19
2022-12-08T06:05:31.779Z,1003.17
2022-12-08T06:06:31.781Z,1003.19
2022-12-08T06:07:31.766Z,1003.17
2022-12-08T06:08:31.838Z,1003.17
2022-12-08T06:09:31.753Z,1003.19
2022-12-08T06:10:31.747Z,1003.13
2022-12-08T06:11:31.748Z,1003.14
2022-12-08T06:12:31.738Z,1003.14
2022-12-08T06:13:31.733Z,1003.13
2022-12-08T06:14:31.726Z,1003.14
2022-12-08T06:15:31.733Z,1003.12
2022-12-08T06:16:31.759Z,1003.09
2022-12-08T06:17:31.708Z,1003.07
2022-12-08T06:18:32.989Z,1003.11
2022-12-08T06:19:31.710Z,1003.06
2022-12-08T06:20:31.694Z,1003.08
2022-12-08T06:21:31.684Z,1003.05
2022-12-08T06:22:31.670Z,1003.05
2022-12-08T06:23:31.670Z,1003.07
2022-12-08T06:24:31.664Z,1003.05
2022-12-08T06:25:31.660Z,1003.07
2022-12-08T06:26:31.646Z,1003.06
2022-12-08T06:27:31.648Z,1003.07
2022-12-08T06:28:31.641Z,1003.06
2022-12-08T06:29:31.630Z,1003.06
2022-12-08T06:30:31.625Z,1003.08
2022-12-08T06:31:31.684Z,1003.08
2022-12-08T06:32:31.716Z,1003.08
2022-12-08T06:33:31.602Z,1003.10
2022-12-08T06:34:31.594Z,1003.16
2022-12-08T06:35:31.596Z,1003.11
2022-12-08T06:36:31.586Z,1003.13
2022-12-08T06:37:31.581Z,1003.12
2022-12-08T06:38:31.575Z,1003.12
2022-12-08T06:39:31.577Z,1003.12
2022-12-08T06:40:31.562Z,1003.13
2022-12-08T06:41:31.553Z,1003.10
2022-12-08T06:42:31.547Z,1003.09
2022-12-08T06:43:31.542Z,1003.08
2022-12-08T06:44:31.539Z,1003.07
2022-12-08T06:45:31.627Z,1003.08
2022-12-08T06:46:31.790Z,1003.07
2022-12-08T06:47:31.534Z,1003.09
2022-12-08T06:48:31.509Z,1003.09
2022-12-08T06:49:31.503Z,1003.09
2022-12-08T06:50:31.496Z,1003.09
2022-12-08T06:51:31.511Z,1003.12
2022-12-08T06:52:31.486Z,1003.11
2022-12-08T06:53:31.482Z,1003.12
2022-12-08T06:54:31.472Z,1003.10
2022-12-08T06:56:31.460Z,1003.06
2022-12-08T06:57:31.458Z,1003.07
2022-12-08T06:58:31.458Z,1003.09
2022-12-08T06:59:31.464Z,1003.11
2022-12-08T07:00:31.498Z,1003.13
2022-12-08T07:01:31.548Z,1003.14
2022-12-08T07:02:31.466Z,1003.15
2022-12-08T07:03:31.451Z,1003.18
2022-12-08T07:04:31.408Z,1003.18
2022-12-08T07:05:31.403Z,1003.20
2022-12-08T07:06:31.417Z,1003.21
2022-12-08T07:07:31.399Z,1003.19
2022-12-08T07:08:31.474Z,1003.20
2022-12-08T07:09:31.379Z,1003.25
2022-12-08T07:10:31.370Z,1003.19
2022-12-08T07:11:31.367Z,1003.23
2022-12-08T07:12:31.362Z,1003.24
2022-12-08T07:13:31.359Z,1003.28
2022-12-08T07:14:31.344Z,1003.25
2022-12-08T07:15:31.342Z,1003.24
2022-12-08T07:16:31.370Z,1003.24
2022-12-08T07:17:31.328Z,1003.25
2022-12-08T07:18:31.320Z,1003.29
2022-12-08T07:19:31.338Z,1003.28
2022-12-08T07:20:31.306Z,1003.33
2022-12-08T07:21:31.303Z,1003.32
2022-12-08T07:22:31.294Z,1003.28
2022-12-08T07:23:31.291Z,1003.34
2022-12-08T07:24:31.284Z,1003.33
2022-12-08T07:25:31.278Z,1003.33
2022-12-08T07:26:31.268Z,1003.33
2022-12-08T07:27:31.264Z,1003.31
2022-12-08T07:28:31.259Z,1003.33
2022-12-08T07:29:31.271Z,1003.35
2022-12-08T07:30:31.296Z,1003.37
2022-12-08T07:31:31.241Z,1003.39
2022-12-08T07:32:31.231Z,1003.36
2022-12-08T07:33:31.229Z,1003.40
2022-12-08T07:34:31.220Z,1003.39
2022-12-08T07:35:31.242Z,1003.37
2022-12-08T07:36:31.207Z,1003.34
2022-12-08T07:37:31.205Z,1003.36
2022-12-08T07:38:31.196Z,1003.32
2022-12-08T07:39:31.188Z,1003.36
2022-12-08T07:40:31.181Z,1003.33
2022-12-08T07:41:31.175Z,1003.33
2022-12-08T07:42:31.168Z,1003.31
2022-12-08T07:43:31.170Z,1003.31
2022-12-08T07:44:31.154Z,1003.29
2022-12-08T07:45:31.851Z,1003.26
2022-12-08T07:46:31.413Z,1003.28
2022-12-08T07:47:31.139Z,1003.22
2022-12-08T07:48:31.132Z,1003.26
2022-12-08T07:49:31.125Z,1003.22
2022-12-08T07:50:31.121Z,1003.31
2022-12-08T07:51:31.131Z,1003.26
2022-12-08T07:52:31.103Z,1003.28
2022-12-08T07:53:31.106Z,1003.29
2022-12-08T07:54:31.094Z,1003.31
2022-12-08T07:55:31.089Z,1003.33
2022-12-08T07:56:31.084Z,1003.29
2022-12-08T07:57:31.071Z,1003.33
2022-12-08T07:58:31.065Z,1003.33
2022-12-08T07:59:31.059Z,1003.33
2022-12-08T08:00:31.128Z,1003.34
2022-12-08T08:01:31.289Z,1003.29
2022-12-08T08:02:31.179Z,1003.28
2022-12-08T08:03:31.036Z,1003.29
2022-12-08T08:04:31.075Z,1003.30
2022-12-08T08:05:31.026Z,1003.29
2022-12-08T08:06:31.025Z,1003.32
2022-12-08T08:07:31.026Z,1003.31
2022-12-08T08:08:31.105Z,1003.27
2022-12-08T08:09:30.996Z,1003.31
2022-12-08T08:10:30.988Z,1003.27
2022-12-08T08:11:30.984Z,1003.25
2022-12-08T08:12:32.380Z,1003.27
2022-12-08T08:13:30.970Z,1003.24
2022-12-08T08:14:30.961Z,1003.26
2022-12-08T08:15:31.110Z,1003.32
2022-12-08T08:16:36.536Z,1003.26
2022-12-08T08:17:31.164Z,1003.30
2022-12-08T08:18:30.943Z,1003.28
2022-12-08T08:19:30.935Z,1003.26
2022-12-08T08:20:30.924Z,1003.30
2022-12-08T08:21:46.681Z,1003.30
2022-12-08T08:22:30.912Z,1003.32
2022-12-08T08:23:30.926Z,1003.31
2022-12-08T08:24:30.897Z,1003.33
2022-12-08T08:25:30.901Z,1003.37
2022-12-08T08:26:30.884Z,1003.37
2022-12-08T08:27:30.878Z,1003.36
2022-12-08T08:28:30.872Z,1003.33
2022-12-08T08:29:30.881Z,1003.38
2022-12-08T08:30:30.861Z,1003.41
2022-12-08T08:31:30.920Z,1003.41
2022-12-08T08:32:30.843Z,1003.40
2022-12-08T08:33:30.838Z,1003.42
2022-12-08T08:34:30.830Z,1003.41
2022-12-08T08:35:30.832Z,1003.42
2022-12-08T08:36:30.818Z,1003.40
2022-12-08T08:37:30.822Z,1003.42
2022-12-08T08:38:30.805Z,1003.44
2022-12-08T08:39:30.824Z,1003.44
2022-12-08T08:40:30.818Z,1003.41
2022-12-08T08:41:30.789Z,1003.43
2022-12-08T08:42:30.779Z,1003.40
2022-12-08T08:43:37.610Z,1003.38
2022-12-08T08:44:30.774Z,1003.39
2022-12-08T08:45:30.766Z,1003.36
2022-12-08T08:46:30.799Z,1003.40
2022-12-08T08:47:30.748Z,1003.37
2022-12-08T08:48:30.742Z,1003.36
2022-12-08T08:49:30.736Z,1003.41
2022-12-08T08:50:37.205Z,1003.40
2022-12-08T08:51:30.727Z,1003.44
2022-12-08T08:52:30.718Z,1003.40
2022-12-08T08:53:30.708Z,1003.38
2022-12-08T08:54:30.702Z,1003.36
2022-12-08T08:55:30.719Z,1003.38
2022-12-08T08:56:30.689Z,1003.41
2022-12-08T08:57:30.679Z,1003.37
2022-12-08T08:58:30.674Z,1003.33
2022-12-08T08:59:30.668Z,1003.33
2022-12-08T09:00:30.663Z,1003.34
2022-12-08T09:01:30.839Z,1003.31
2022-12-08T09:02:30.651Z,1003.34
2022-12-08T09:03:30.639Z,1003.29
2022-12-08T09:04:30.719Z,1003.29
2022-12-08T09:05:30.627Z,1003.28
2022-12-08T09:06:30.664Z,1003.31
2022-12-08T09:07:30.616Z,1003.27
2022-12-08T09:08:30.797Z,1003.35
2022-12-08T09:09:30.601Z,1003.33
2022-12-08T09:10:30.595Z,1003.36
2022-12-08T09:11:30.608Z,1003.34
2022-12-08T09:12:30.592Z,1003.34
2022-12-08T09:13:30.574Z,1003.33
2022-12-08T09:14:30.572Z,1003.32
2022-12-08T09:15:30.567Z,1003.28
2022-12-08T09:16:30.624Z,1003.31
2022-12-08T09:17:30.752Z,1003.27
2022-12-08T09:18:30.550Z,1003.28
2022-12-08T09:19:30.544Z,1003.33
2022-12-08T09:20:30.532Z,1003.34
2022-12-08T09:21:30.523Z,1003.32
2022-12-08T09:22:30.520Z,1003.29
2022-12-08T09:23:35.185Z,1003.31
2022-12-08T09:24:30.504Z,1003.28
2022-12-08T09:25:30.499Z,1003.31
2022-12-08T09:26:30.492Z,1003.37
2022-12-08T09:27:30.505Z,1003.34
2022-12-08T09:28:30.479Z,1003.34
2022-12-08T09:29:35.771Z,1003.36
2022-12-08T09:30:30.467Z,1003.35
2022-12-08T09:31:30.572Z,1003.35
2022-12-08T09:32:30.454Z,1003.38
2022-12-08T09:33:30.447Z,1003.32
2022-12-08T09:34:30.442Z,1003.32
2022-12-08T09:35:30.436Z,1003.29
2022-12-08T09:36:30.429Z,1003.37
2022-12-08T09:37:30.419Z,1003.34
2022-12-08T09:38:30.414Z,1003.37
2022-12-08T09:39:30.408Z,1003.37
2022-12-08T09:40:30.406Z,1003.40
2022-12-08T09:41:35.961Z,1003.35
2022-12-08T09:42:30.394Z,1003.35
2022-12-08T09:43:30.402Z,1003.37
2022-12-08T09:44:30.378Z,1003.32
2022-12-08T09:45:30.368Z,1003.28
2022-12-08T09:46:30.434Z,1003.31
2022-12-08T09:47:35.501Z,1003.28
2022-12-08T09:48:30.351Z,1003.34
2022-12-08T09:49:30.343Z,1003.28
2022-12-08T09:50:30.402Z,1003.27
2022-12-08T09:51:30.329Z,1003.31
2022-12-08T09:52:30.329Z,1003.26
2022-12-08T09:53:35.321Z,1003.26
2022-12-08T09:54:30.313Z,1003.29
2022-12-08T09:55:30.305Z,1003.26
2022-12-08T09:56:30.299Z,1003.29
2022-12-08T09:57:30.300Z,1003.24
2022-12-08T09:58:30.289Z,1003.25
2022-12-08T09:59:30.300Z,1003.25
2022-12-08T10:00:30.274Z,1003.24
2022-12-08T10:01:30.312Z,1003.23
2022-12-08T10:02:30.260Z,1003.20
2022-12-08T10:03:30.252Z,1003.21
2022-12-08T10:04:30.310Z,1003.24
2022-12-08T10:05:30.376Z,1003.23
2022-12-08T10:06:30.243Z,1003.24
2022-12-08T10:07:30.225Z,1003.24
2022-12-08T10:08:30.303Z,1003.23
2022-12-08T10:09:30.213Z,1003.26
2022-12-08T10:10:30.215Z,1003.23
2022-12-08T10:11:30.205Z,1003.19
2022-12-08T10:12:30.195Z,1003.18
2022-12-08T10:13:30.191Z,1003.18
2022-12-08T10:14:30.186Z,1003.18
2022-12-08T10:15:30.213Z,1003.16
2022-12-08T10:16:30.425Z,1003.14
2022-12-08T10:17:30.165Z,1003.17
2022-12-08T10:18:30.161Z,1003.14
2022-12-08T10:19:30.150Z,1003.15
2022-12-08T10:20:30.145Z,1003.07
2022-12-08T10:21:30.136Z,1003.14
2022-12-08T10:22:30.135Z,1003.12
2022-12-08T10:23:30.126Z,1003.13
2022-12-08T10:24:30.121Z,1003.17
2022-12-08T10:25:30.121Z,1003.14
2022-12-08T10:26:30.106Z,1003.15
2022-12-08T10:27:30.099Z,1003.16
2022-12-08T10:28:30.093Z,1003.16
2022-12-08T10:29:30.085Z,1003.13
2022-12-08T10:30:30.084Z,1003.09
2022-12-08T10:31:30.163Z,1003.08
2022-12-08T10:32:30.075Z,1003.09
2022-12-08T10:33:30.062Z,1003.03
2022-12-08T10:34:30.055Z,1003.03
2022-12-08T10:35:30.051Z,1003.01
2022-12-08T10:36:30.045Z,1002.99
2022-12-08T10:37:30.034Z,1003.01
2022-12-08T10:38:30.029Z,1002.99
2022-12-08T10:39:30.024Z,1003.01
2022-12-08T10:40:30.016Z,1002.98
2022-12-08T10:41:30.010Z,1003.01
2022-12-08T10:42:30.004Z,1002.92
2022-12-08T10:43:30.000Z,1003.01
2022-12-08T10:44:29.992Z,1003.00
2022-12-08T10:45:29.982Z,1002.98
2022-12-08T10:46:30.019Z,1003.00
2022-12-08T10:47:29.995Z,1002.96
2022-12-08T10:48:29.969Z,1002.99
2022-12-08T10:49:29.958Z,1002.95
2022-12-08T10:50:29.953Z,1002.98
2022-12-08T10:51:29.945Z,1002.98
2022-12-08T10:52:29.941Z,1002.96
2022-12-08T10:53:29.929Z,1002.92
2022-12-08T10:54:29.928Z,1002.90
2022-12-08T10:55:29.928Z,1002.92
2022-12-08T10:56:29.934Z,1002.91
2022-12-08T10:57:29.908Z,1002.86
2022-12-08T10:58:29.902Z,1002.86
2022-12-08T10:59:29.896Z,1002.89
2022-12-08T11:00:30.064Z,1002.89
2022-12-08T11:01:29.963Z,1002.86
2022-12-08T11:02:30.002Z,1002.87
2022-12-08T11:03:29.892Z,1002.85
2022-12-08T11:04:29.942Z,1002.87
2022-12-08T11:05:29.858Z,1002.84
2022-12-08T11:06:29.855Z,1002.81
2022-12-08T11:07:29.846Z,1002.80
2022-12-08T11:08:29.939Z,1002.82
2022-12-08T11:09:29.831Z,1002.83
2022-12-08T11:10:29.824Z,1002.82
2022-12-08T11:11:29.818Z,1002.77
2022-12-08T11:12:29.816Z,1002.79
2022-12-08T11:13:29.803Z,1002.80
2022-12-08T11:14:29.799Z,1002.78
2022-12-08T11:15:29.791Z,1002.79
2022-12-08T11:16:29.840Z,1002.77
2022-12-08T11:17:29.782Z,1002.76
2022-12-08T11:18:29.775Z,1002.74
2022-12-08T11:19:29.786Z,1002.78
2022-12-08T11:20:29.759Z,1002.70
2022-12-08T11:21:29.751Z,1002.69
2022-12-08T11:22:29.746Z,1002.68
2022-12-08T11:23:29.738Z,1002.65
2022-12-08T11:24:34.636Z,1002.63
2022-12-08T11:25:29.726Z,1002.63
2022-12-08T11:26:29.722Z,1002.63
2022-12-08T11:27:29.711Z,1002.61
2022-12-08T11:28:29.708Z,1002.61
2022-12-08T11:29:29.699Z,1002.61
2022-12-08T11:30:29.698Z,1002.60
2022-12-08T11:31:29.735Z,1002.56
2022-12-08T11:32:29.685Z,1002.55
2022-12-08T11:33:29.675Z,1002.59
2022-12-08T11:34:29.679Z,1002.53
2022-12-08T11:35:29.680Z,1002.55
2022-12-08T11:36:29.662Z,1002.53
2022-12-08T11:37:34.478Z,1002.52
2022-12-08T11:38:29.649Z,1002.55
2022-12-08T11:39:29.636Z,1002.55
2022-12-08T11:40:29.636Z,1002.56
2022-12-08T11:41:29.629Z,1002.55
2022-12-08T11:42:29.618Z,1002.50
2022-12-08T11:43:29.612Z,1002.53
2022-12-08T11:44:29.609Z,1002.53
2022-12-08T11:45:29.663Z,1002.59
2022-12-08T11:46:29.634Z,1002.53
2022-12-08T11:47:29.584Z,1002.52
2022-12-08T11:48:29.648Z,1002.53
2022-12-08T11:49:29.571Z,1002.58
2022-12-08T11:50:29.569Z,1002.53
2022-12-08T11:51:29.578Z,1002.51
2022-12-08T11:52:29.555Z,1002.49
2022-12-08T11:53:29.548Z,1002.51
2022-12-08T11:54:29.545Z,1002.52
2022-12-08T11:55:32.283Z,1002.53
2022-12-08T11:56:29.529Z,1002.50
2022-12-08T11:57:29.521Z,1002.49
2022-12-08T11:58:29.594Z,1002.51
2022-12-08T11:59:29.508Z,1002.51
2022-12-08T12:00:29.503Z,1002.49
2022-12-08T12:01:29.499Z,1002.47
2022-12-08T12:02:29.545Z,1002.47
2022-12-08T12:03:29.581Z,1002.47
2022-12-08T12:04:29.478Z,1002.45
2022-12-08T12:05:47.533Z,1002.46
2022-12-08T12:06:53.211Z,1002.47